Time;durP1;ratioP1;P1;durP2;ratioP2;P2;SDS_P1;SDS_P2;PMS_P1;PMS_P2;Temp;Humidity;BMP_temperature;BMP_pressure;BME280_temperature;BME280_humidity;BME280_pressure;Samples;Min_cycle;Max_cycle;Signal;HPM_P1;HPM_P2
2024/02/16 00:00:08;;;;;;;2.40;1.40;;;22.40;64.70;;;;;;5075398;28;20441;-85
2024/02/16 00:02:34;;;;;;;2.00;1.00;;;22.40;64.70;;;;;;5075699;28;20433;-86
2024/02/16 00:05:01;;;;;;;1.80;1.10;;;22.40;64.80;;;;;;5076051;28;20440;-82
2024/02/16 00:07:28;;;;;;;2.53;1.20;;;22.40;64.70;;;;;;5089327;28;20555;-83
2024/02/16 00:09:55;;;;;;;2.33;1.20;;;22.40;64.70;;;;;;5084933;28;20490;-83
2024/02/16 00:12:24;;;;;;;1.90;0.90;;;22.40;64.80;;;;;;5076554;28;20440;-83
2024/02/16 00:14:50;;;;;;;2.67;1.10;;;22.30;64.60;;;;;;5075594;28;20425;-86
2024/02/16 00:17:17;;;;;;;1.70;1.00;;;22.30;64.70;;;;;;5075238;28;20531;-86
2024/02/16 00:19:44;;;;;;;1.50;0.87;;;22.30;64.70;;;;;;5075220;28;21002;-82
2024/02/16 00:22:12;;;;;;;2.20;1.10;;;22.30;64.60;;;;;;5075100;28;20509;-83
2024/02/16 00:24:39;;;;;;;1.60;1.10;;;22.30;64.70;;;;;;5075176;28;20441;-82
2024/02/16 00:27:06;;;;;;;2.33;0.90;;;22.30;64.70;;;;;;5075315;28;20962;-83
2024/02/16 00:29:34;;;;;;;1.60;1.00;;;22.30;64.70;;;;;;5055288;28;20487;-83
2024/02/16 00:32:01;;;;;;;2.13;0.90;;;22.30;64.70;;;;;;5054987;28;20771;-83
2024/02/16 00:34:28;;;;;;;2.00;1.23;;;22.30;64.70;;;;;;5054806;28;20927;-87
2024/02/16 00:36:55;;;;;;;1.70;1.10;;;22.30;64.70;;;;;;5054308;28;20936;-83
2024/02/16 00:39:22;;;;;;;2.63;1.27;;;22.30;64.70;;;;;;5054890;28;20522;-83
2024/02/16 00:41:49;;;;;;;1.73;1.10;;;22.30;64.70;;;;;;5054894;28;20434;-83
2024/02/16 00:44:16;;;;;;;1.50;0.80;;;22.30;64.70;;;;;;5054774;28;20450;-83
2024/02/16 00:46:44;;;;;;;1.50;0.90;;;22.30;64.70;;;;;;5054700;28;20533;-83
2024/02/16 00:49:11;;;;;;;2.03;1.30;;;22.30;64.70;;;;;;5054724;28;20833;-85
2024/02/16 00:51:38;;;;;;;1.60;0.80;;;22.20;64.60;;;;;;5066695;28;20444;-83
2024/02/16 00:54:05;;;;;;;3.70;1.40;;;22.30;64.70;;;;;;5074485;28;20432;-82
2024/02/16 00:56:33;;;;;;;1.97;1.10;;;22.20;65.40;;;;;;5074279;28;20467;-86
2024/02/16 00:59:00;;;;;;;1.70;0.80;;;22.20;64.50;;;;;;5074407;28;20439;-82
2024/02/16 01:01:27;;;;;;;1.80;1.03;;;22.30;64.70;;;;;;5074322;28;20432;-83
2024/02/16 01:03:55;;;;;;;2.23;0.87;;;22.20;64.40;;;;;;5074248;28;20441;-83
2024/02/16 01:06:22;;;;;;;2.47;1.03;;;22.30;64.70;;;;;;5074240;28;20467;-83
2024/02/16 01:08:49;;;;;;;1.63;1.00;;;22.20;64.50;;;;;;5074508;28;20840;-82
2024/02/16 01:11:16;;;;;;;2.00;1.00;;;22.20;64.50;;;;;;5074191;28;20459;-82
2024/02/16 01:13:42;;;;;;;2.10;1.20;;;22.20;64.50;;;;;;5074396;28;20436;-83
2024/02/16 01:16:09;;;;;;;1.93;0.90;;;22.20;64.50;;;;;;5074183;28;20993;-82
2024/02/16 01:18:37;;;;;;;2.17;0.90;;;22.20;64.50;;;;;;5074164;28;20486;-87
2024/02/16 01:21:05;;;;;;;1.60;0.90;;;22.20;64.50;;;;;;5073997;28;20436;-84
2024/02/16 01:23:32;;;;;;;1.60;1.00;;;22.20;64.50;;;;;;5073999;28;20431;-82
2024/02/16 01:26:00;;;;;;;1.93;1.13;;;22.20;64.50;;;;;;5073998;28;20527;-83
2024/02/16 01:28:27;;;;;;;1.40;0.80;;;22.20;64.50;;;;;;5073761;28;20435;-82
2024/02/16 01:30:56;;;;;;;1.60;1.03;;;22.20;64.50;;;;;;5074375;28;20447;-82
2024/02/16 01:33:23;;;;;;;1.40;0.80;;;22.20;64.60;;;;;;5065688;28;20436;-82
2024/02/16 01:35:49;;;;;;;1.60;0.90;;;22.30;64.70;;;;;;5073702;28;20927;-83
2024/02/16 01:38:18;;;;;;;1.90;1.00;;;22.20;64.50;;;;;;5074121;28;20786;-83
2024/02/16 01:40:44;;;;;;;1.47;0.80;;;22.20;64.50;;;;;;5073700;28;20439;-83
2024/02/16 01:43:11;;;;;;;3.10;1.17;;;22.20;64.50;;;;;;5074112;28;20428;-83
2024/02/16 01:45:38;;;;;;;1.80;0.90;;;22.20;64.50;;;;;;5073687;28;20447;-83
2024/02/16 01:48:06;;;;;;;1.50;0.80;;;22.10;64.40;;;;;;5073802;28;20437;-82
2024/02/16 01:50:33;;;;;;;2.90;0.90;;;22.10;64.40;;;;;;5073784;28;20836;-83
2024/02/16 01:53:00;;;;;;;1.87;1.00;;;22.10;64.40;;;;;;5073473;28;20436;-82
2024/02/16 01:55:27;;;;;;;2.00;0.90;;;22.10;64.40;;;;;;5073460;28;20452;-83
2024/02/16 01:57:54;;;;;;;2.00;1.10;;;22.10;64.40;;;;;;5073537;28;20466;-83
2024/02/16 02:00:21;;;;;;;1.43;0.90;;;22.10;64.40;;;;;;5065406;28;20429;-85
2024/02/16 02:02:49;;;;;;;1.80;0.90;;;22.10;64.50;;;;;;5073716;28;20523;-83
2024/02/16 02:05:15;;;;;;;1.60;0.80;;;22.10;64.50;;;;;;5073370;28;20448;-83
2024/02/16 02:07:43;;;;;;;1.57;0.90;;;22.10;64.40;;;;;;5073476;28;20805;-83
2024/02/16 02:10:12;;;;;;;1.60;1.00;;;22.10;64.40;;;;;;5073312;28;20514;-83
2024/02/16 02:12:40;;;;;;;1.50;0.87;;;22.10;64.40;;;;;;5074006;28;20440;-83
2024/02/16 02:15:08;;;;;;;1.70;1.20;;;22.10;64.40;;;;;;5073748;28;20511;-83
2024/02/16 02:17:35;;;;;;;1.80;1.10;;;22.10;64.40;;;;;;5073096;28;20459;-82
2024/02/16 02:20:03;;;;;;;2.20;1.10;;;22.10;64.30;;;;;;5073407;28;20436;-82
2024/02/16 02:22:31;;;;;;;1.50;1.00;;;22.10;64.30;;;;;;5073297;28;20535;-83
2024/02/16 02:24:58;;;;;;;1.60;1.10;;;22.10;65.20;;;;;;5073229;28;20436;-82
2024/02/16 02:27:25;;;;;;;1.70;0.80;;;22.10;64.30;;;;;;5073072;28;20435;-83
2024/02/16 02:29:52;;;;;;;1.60;1.10;;;22.10;64.30;;;;;;5073106;28;20480;-84
2024/02/16 02:32:19;;;;;;;1.70;0.93;;;22.10;64.30;;;;;;5073265;28;20433;-83
2024/02/16 02:34:46;;;;;;;1.70;1.00;;;22.10;64.30;;;;;;5081743;28;20442;-83
2024/02/16 02:37:12;;;;;;;1.60;0.90;;;22.10;64.30;;;;;;5085718;28;20432;-83
2024/02/16 02:39:41;;;;;;;1.70;1.10;;;22.10;64.20;;;;;;5086004;28;20475;-81
2024/02/16 02:42:09;;;;;;;1.50;0.93;;;22.20;64.30;;;;;;5076781;28;20428;-82
2024/02/16 02:44:36;;;;;;;1.70;0.90;;;22.20;64.20;;;;;;5073259;28;20924;-82
2024/02/16 02:47:03;;;;;;;2.00;0.90;;;22.20;64.20;;;;;;5073082;28;20516;-82
2024/02/16 02:49:30;;;;;;;1.77;0.93;;;22.20;64.20;;;;;;5072999;28;20510;-82
2024/02/16 02:51:56;;;;;;;1.60;1.00;;;22.20;64.20;;;;;;5072637;28;20432;-82
2024/02/16 02:54:23;;;;;;;1.50;0.93;;;22.20;64.20;;;;;;5072709;28;20444;-82
2024/02/16 02:56:51;;;;;;;1.70;1.00;;;22.20;64.10;;;;;;5073375;28;20448;-82
2024/02/16 02:59:18;;;;;;;1.70;0.90;;;22.20;64.10;;;;;;5075212;28;20440;-83
2024/02/16 03:01:45;;;;;;;1.60;0.90;;;22.20;64.10;;;;;;5076553;28;20436;-83
2024/02/16 03:04:12;;;;;;;1.60;0.80;;;22.20;64.10;;;;;;5076617;28;20437;-83
2024/02/16 03:06:38;;;;;;;1.70;1.20;;;22.20;64.00;;;;;;5076526;28;20802;-83
2024/02/16 03:09:06;;;;;;;1.80;1.13;;;22.20;63.90;;;;;;5076764;28;20471;-83
2024/02/16 03:11:33;;;;;;;1.70;1.00;;;22.20;63.80;;;;;;5076297;28;20474;-83
2024/02/16 03:14:01;;;;;;;4.83;0.93;;;22.20;63.80;;;;;;5076292;28;20939;-83
2024/02/16 03:16:28;;;;;;;1.40;0.80;;;22.20;63.80;;;;;;5076484;28;20436;-83
2024/02/16 03:18:56;;;;;;;1.90;1.33;;;22.20;63.80;;;;;;5076518;28;20424;-82
2024/02/16 03:21:22;;;;;;;3.07;1.50;;;22.20;63.80;;;;;;5076289;28;20428;-83
2024/02/16 03:23:49;;;;;;;1.50;0.80;;;22.40;64.10;;;;;;5076271;28;20435;-82
2024/02/16 03:26:16;;;;;;;1.70;0.90;;;22.20;63.80;;;;;;5076217;28;20494;-82
2024/02/16 03:28:47;;;;;;;1.40;0.80;;;22.20;63.70;;;;;;5082889;28;20444;-80
2024/02/16 03:31:21;;;;;;;1.50;0.93;;;22.40;64.00;;;;;;5086864;28;20986;-82
2024/02/16 03:33:49;;;;;;;1.63;0.80;;;22.20;63.70;;;;;;5085270;28;20485;-83
2024/02/16 03:36:16;;;;;;;1.47;0.90;;;22.20;63.70;;;;;;5075912;28;20939;-83
2024/02/16 03:38:43;;;;;;;1.50;0.90;;;22.20;63.60;;;;;;5076095;28;20459;-83
2024/02/16 03:41:14;;;;;;;2.50;1.13;;;22.30;63.80;;;;;;5072490;28;20831;-87
2024/02/16 03:43:41;;;;;;;1.60;0.90;;;22.30;63.70;;;;;;5075718;28;20437;-83
2024/02/16 03:46:08;;;;;;;1.60;1.00;;;22.20;63.60;;;;;;5075765;28;20432;-84
2024/02/16 03:48:37;;;;;;;1.50;0.90;;;22.30;63.80;;;;;;5075602;28;20444;-83
2024/02/16 03:51:04;;;;;;;1.80;1.17;;;22.30;63.70;;;;;;5075658;28;20574;-83
2024/02/16 03:53:31;;;;;;;1.70;0.90;;;22.20;63.50;;;;;;5075886;28;20479;-82
2024/02/16 03:55:58;;;;;;;1.57;1.00;;;22.30;63.70;;;;;;5075430;28;20459;-83
2024/02/16 03:58:26;;;;;;;2.03;1.23;;;22.30;63.70;;;;;;5075641;28;20437;-83
2024/02/16 04:00:53;;;;;;;1.93;1.13;;;22.30;63.60;;;;;;5075179;28;20444;-83
2024/02/16 04:03:20;;;;;;;1.43;0.80;;;22.30;63.60;;;;;;5075351;28;20486;-82
2024/02/16 04:05:48;;;;;;;1.50;0.93;;;22.30;63.60;;;;;;5075559;28;20435;-83
2024/02/16 04:08:15;;;;;;;2.10;1.10;;;22.30;63.60;;;;;;5075152;28;20490;-83
2024/02/16 04:10:42;;;;;;;1.50;1.03;;;22.30;63.60;;;;;;5073907;28;20486;-82
2024/02/16 04:13:09;;;;;;;2.00;1.00;;;22.30;63.60;;;;;;5075106;28;20436;-82
2024/02/16 04:15:37;;;;;;;1.73;1.00;;;22.30;63.60;;;;;;5075318;28;20436;-83
2024/02/16 04:18:04;;;;;;;1.70;0.90;;;22.30;63.50;;;;;;5075235;28;20936;-83
2024/02/16 04:20:30;;;;;;;1.80;0.90;;;22.30;63.60;;;;;;5074860;28;20946;-82
2024/02/16 04:22:58;;;;;;;1.70;0.80;;;22.30;63.50;;;;;;5075204;28;20799;-82
2024/02/16 04:25:25;;;;;;;1.70;1.10;;;22.30;63.50;;;;;;5075144;28;20460;-83
2024/02/16 04:27:52;;;;;;;1.80;0.90;;;22.20;63.40;;;;;;5074971;28;20460;-83
2024/02/16 04:30:19;;;;;;;1.50;0.90;;;22.20;63.50;;;;;;5074965;28;20476;-82
2024/02/16 04:32:46;;;;;;;1.80;1.00;;;22.20;63.40;;;;;;5074797;28;20794;-83
2024/02/16 04:35:14;;;;;;;1.70;1.20;;;22.20;63.40;;;;;;5075033;28;20817;-83
2024/02/16 04:37:40;;;;;;;1.53;0.83;;;22.20;63.30;;;;;;5074988;28;20860;-83
2024/02/16 04:40:11;;;;;;;1.60;1.10;;;22.20;63.40;;;;;;5074639;28;20450;-82
2024/02/16 04:42:40;;;;;;;1.93;1.20;;;22.20;63.50;;;;;;5074993;28;20452;-83
2024/02/16 04:45:07;;;;;;;1.70;1.13;;;22.20;63.40;;;;;;5074653;28;20440;-84
2024/02/16 04:47:34;;;;;;;1.63;0.93;;;22.30;63.50;;;;;;5074736;28;20436;-84
2024/02/16 04:50:01;;;;;;;1.77;0.80;;;22.20;63.30;;;;;;5074773;28;20834;-86
2024/02/16 04:52:27;;;;;;;1.43;0.80;;;22.20;63.30;;;;;;5074169;28;21329;-81
2024/02/16 04:54:54;;;;;;;1.60;0.90;;;22.30;63.50;;;;;;5074129;28;20432;-82
2024/02/16 04:57:22;;;;;;;1.40;0.80;;;22.20;63.30;;;;;;5075011;28;20934;-83
2024/02/16 04:59:49;;;;;;;1.70;0.90;;;22.30;63.50;;;;;;5074049;28;20451;-82
2024/02/16 05:02:16;;;;;;;1.60;0.90;;;22.20;63.40;;;;;;5056238;28;20439;-82
2024/02/16 05:04:43;;;;;;;1.80;0.97;;;22.30;63.50;;;;;;5073982;28;20481;-81
2024/02/16 05:07:10;;;;;;;1.70;0.87;;;22.30;63.40;;;;;;5071629;28;20558;-83
2024/02/16 05:09:36;;;;;;;1.53;0.90;;;22.30;63.40;;;;;;5078552;28;20423;-84
2024/02/16 05:12:04;;;;;;;1.93;0.90;;;22.30;63.30;;;;;;5094561;28;20930;-84
2024/02/16 05:14:32;;;;;;;1.57;0.97;;;22.30;63.30;;;;;;5094401;28;20933;-84
2024/02/16 05:16:59;;;;;;;1.50;0.90;;;22.30;63.20;;;;;;5094086;28;21029;-84
2024/02/16 05:19:25;;;;;;;1.67;0.90;;;22.30;63.20;;;;;;5093871;28;20439;-83
2024/02/16 05:21:52;;;;;;;2.10;1.00;;;22.30;63.20;;;;;;5093851;28;20431;-84
2024/02/16 05:24:20;;;;;;;1.50;0.87;;;22.30;63.20;;;;;;5094252;28;20444;-87
2024/02/16 05:26:47;;;;;;;1.57;1.10;;;22.30;63.20;;;;;;5094434;28;20819;-83
2024/02/16 05:29:13;;;;;;;1.60;1.10;;;22.30;63.10;;;;;;5094353;28;20428;-84
2024/02/16 05:31:41;;;;;;;1.80;0.90;;;22.30;63.20;;;;;;5093860;28;20479;-83
2024/02/16 05:34:08;;;;;;;1.70;0.90;;;22.40;63.30;;;;;;5094030;28;20439;-84
2024/02/16 05:36:36;;;;;;;1.50;1.00;;;22.30;63.20;;;;;;5094338;28;20432;-84
2024/02/16 05:39:19;;;;;;;1.50;0.90;;;22.40;63.40;;;;;;5093846;28;20435;-87
2024/02/16 05:41:46;;;;;;;2.33;0.90;;;22.50;63.50;;;;;;5093699;28;20541;-84
2024/02/16 05:44:13;;;;;;;1.50;0.90;;;22.40;63.40;;;;;;5094005;28;20439;-83
2024/02/16 05:46:41;;;;;;;1.50;1.00;;;22.40;63.30;;;;;;5094098;28;20802;-84
2024/02/16 05:49:09;;;;;;;2.00;1.00;;;22.40;63.40;;;;;;5094236;28;20431;-84
2024/02/16 05:51:39;;;;;;;3.20;1.10;;;22.40;63.40;;;;;;5093662;28;20479;-83
2024/02/16 05:54:07;;;;;;;1.90;1.20;;;22.40;64.40;;;;;;5094069;28;20435;-84
2024/02/16 05:56:34;;;;;;;1.60;0.90;;;22.40;63.50;;;;;;5094387;28;20494;-84
2024/02/16 05:59:01;;;;;;;1.60;1.00;;;22.40;63.50;;;;;;5094937;28;20489;-83
2024/02/16 06:01:28;;;;;;;1.60;1.00;;;22.40;63.50;;;;;;5094309;28;20441;-84
2024/02/16 06:03:56;;;;;;;2.00;1.10;;;22.40;63.50;;;;;;5093946;28;20520;-83
2024/02/16 06:06:23;;;;;;;2.03;1.00;;;22.50;63.70;;;;;;5093475;28;20435;-83
2024/02/16 06:08:50;;;;;;;1.70;0.80;;;22.50;63.60;;;;;;5093048;28;20427;-84
2024/02/16 06:11:17;;;;;;;2.40;0.77;;;22.50;63.60;;;;;;5093121;28;20491;-84
2024/02/16 06:13:43;;;;;;;1.60;0.90;;;22.50;63.60;;;;;;5092941;28;20440;-84
2024/02/16 06:16:10;;;;;;;1.50;0.90;;;22.50;63.60;;;;;;5093452;28;20439;-84
2024/02/16 06:18:37;;;;;;;1.57;0.90;;;22.50;63.60;;;;;;5074063;28;20680;-84
2024/02/16 06:21:05;;;;;;;1.90;1.10;;;22.40;63.40;;;;;;5070512;28;20460;-83
2024/02/16 06:23:34;;;;;;;1.90;1.20;;;22.50;63.60;;;;;;5071695;28;20445;-85
2024/02/16 06:26:02;;;;;;;1.63;1.10;;;22.50;63.50;;;;;;5073049;28;20551;-83
2024/02/16 06:28:29;;;;;;;1.50;0.80;;;22.50;63.50;;;;;;5074007;28;20440;-84
2024/02/16 06:30:56;;;;;;;2.43;1.00;;;22.50;63.60;;;;;;5073005;28;20484;-84
2024/02/16 06:33:23;;;;;;;1.60;0.90;;;22.50;63.60;;;;;;5073914;28;20447;-84
2024/02/16 06:35:50;;;;;;;1.60;1.00;;;22.50;63.70;;;;;;5076792;28;20433;-83
2024/02/16 06:38:18;;;;;;;2.23;0.87;;;22.50;63.50;;;;;;5076399;28;20475;-89
2024/02/16 06:40:45;;;;;;;3.40;0.90;;;22.60;63.80;;;;;;5074762;28;20444;-84
2024/02/16 06:43:11;;;;;;;1.40;0.90;;;22.50;63.80;;;;;;5073662;28;20443;-85
2024/02/16 06:45:38;;;;;;;1.60;0.97;;;22.50;63.70;;;;;;5074053;28;20519;-83
2024/02/16 06:48:05;;;;;;;2.23;1.07;;;22.50;63.80;;;;;;5074510;28;20440;-83
2024/02/16 06:50:32;;;;;;;1.80;1.10;;;22.50;63.80;;;;;;5079649;28;20491;-83
2024/02/16 06:52:59;;;;;;;1.90;1.00;;;22.50;63.90;;;;;;5079110;28;20447;-83
2024/02/16 06:55:27;;;;;;;1.60;1.10;;;22.50;63.90;;;;;;5081043;28;20474;-84
2024/02/16 06:57:57;;;;;;;1.70;0.90;;;22.50;63.80;;;;;;5079748;28;20538;-83
2024/02/16 07:00:24;;;;;;;3.13;0.97;;;22.50;63.80;;;;;;5083361;28;20439;-80
2024/02/16 07:02:50;;;;;;;1.80;1.10;;;22.50;63.80;;;;;;5076920;28;20519;-83
2024/02/16 07:05:17;;;;;;;1.50;0.87;;;22.50;63.80;;;;;;5076586;28;20441;-84
2024/02/16 07:07:44;;;;;;;1.90;1.00;;;22.50;63.80;;;;;;5077049;28;20558;-83
2024/02/16 07:12:55;;;;;;;1.93;0.90;;;22.50;63.80;;;;;;5077877;28;20943;-87
2024/02/16 07:15:21;;;;;;;2.67;1.43;;;22.50;63.80;;;;;;5074698;28;20543;-86
2024/02/16 07:17:48;;;;;;;1.60;0.90;;;22.60;64.00;;;;;;5076169;28;20436;-92
2024/02/16 07:20:16;;;;;;;1.60;0.90;;;22.60;64.00;;;;;;5074558;28;20456;-83
2024/02/16 07:22:43;;;;;;;1.60;0.93;;;22.60;64.00;;;;;;5088387;28;20840;-83
2024/02/16 07:25:12;;;;;;;2.10;1.37;;;22.50;63.80;;;;;;5091382;28;20499;-82
2024/02/16 07:27:39;;;;;;;1.50;0.90;;;22.50;63.80;;;;;;5080039;28;20776;-83
2024/02/16 07:30:10;;;;;;;1.80;0.90;;;22.50;63.80;;;;;;5081106;28;20428;-85
2024/02/16 07:32:37;;;;;;;1.63;0.90;;;22.50;63.80;;;;;;5089976;28;20439;-87
2024/02/16 07:35:04;;;;;;;2.40;1.17;;;22.50;63.70;;;;;;5076396;28;20431;-83
2024/02/16 07:37:32;;;;;;;1.57;0.93;;;22.60;63.80;;;;;;5080589;28;20442;-83
2024/02/16 07:39:59;;;;;;;1.80;1.30;;;22.50;63.70;;;;;;5084159;28;21114;-82
2024/02/16 07:42:26;;;;;;;2.17;1.20;;;22.50;63.60;;;;;;5088628;28;20471;-89
2024/02/16 07:44:54;;;;;;;1.80;1.00;;;22.50;63.60;;;;;;5094092;28;20435;-82
2024/02/16 07:47:22;;;;;;;1.90;1.00;;;22.60;63.60;;;;;;5079797;28;20438;-89
2024/02/16 07:49:50;;;;;;;1.70;1.00;;;22.70;63.70;;;;;;5085594;28;20432;-79
2024/02/16 07:52:16;;;;;;;2.43;1.10;;;22.50;63.60;;;;;;5086396;28;20479;-78
2024/02/16 07:54:44;;;;;;;1.80;1.00;;;22.50;63.60;;;;;;5075385;28;20813;-86
2024/02/16 07:57:11;;;;;;;1.80;1.00;;;22.60;63.60;;;;;;5037026;28;20437;-85
2024/02/16 07:59:37;;;;;;;1.70;1.13;;;22.60;63.50;;;;;;5068389;28;20436;-85
2024/02/16 08:02:05;;;;;;;2.03;1.00;;;22.60;63.40;;;;;;5094881;28;20522;-87
2024/02/16 08:04:33;;;;;;;1.60;1.10;;;22.60;63.50;;;;;;5094975;28;20440;-84
2024/02/16 08:07:01;;;;;;;1.60;1.10;;;22.60;63.50;;;;;;5076947;28;21049;-83
2024/02/16 08:09:27;;;;;;;1.90;0.90;;;22.60;63.40;;;;;;5079915;28;20442;-83
2024/02/16 08:11:54;;;;;;;1.70;1.00;;;22.60;63.40;;;;;;5095492;28;20486;-84
2024/02/16 08:14:21;;;;;;;2.63;1.30;;;22.60;63.40;;;;;;5094362;28;20448;-79
2024/02/16 08:16:48;;;;;;;2.63;1.13;;;22.60;63.30;;;;;;5075859;28;20444;-78
2024/02/16 08:19:15;;;;;;;1.63;0.90;;;22.60;63.30;;;;;;5073581;28;20492;-80
2024/02/16 08:21:44;;;;;;;2.23;1.10;;;22.60;63.30;;;;;;5073408;28;20432;-80
2024/02/16 08:24:10;;;;;;;1.90;1.00;;;22.60;64.20;;;;;;5084228;28;20493;-80
2024/02/16 08:26:37;;;;;;;1.70;1.10;;;22.60;63.30;;;;;;5078337;28;20440;-86
2024/02/16 08:29:04;;;;;;;1.70;1.20;;;22.60;63.30;;;;;;5074064;28;20444;-80
2024/02/16 08:31:31;;;;;;;2.27;1.10;;;22.60;63.30;;;;;;5073500;28;20841;-79
2024/02/16 08:33:57;;;;;;;1.93;0.80;;;22.60;63.30;;;;;;5073605;28;20748;-79
2024/02/16 08:36:29;;;;;;;1.83;0.80;;;22.60;63.40;;;;;;5073857;28;20441;-80
2024/02/16 08:38:57;;;;;;;1.70;1.00;;;22.60;64.20;;;;;;5088063;28;20432;-80
2024/02/16 08:41:24;;;;;;;1.70;1.00;;;22.60;63.40;;;;;;5077778;28;20444;-81
2024/02/16 08:43:51;;;;;;;2.00;1.30;;;22.50;63.30;;;;;;5083873;28;20958;-80
2024/02/16 08:46:18;;;;;;;2.00;1.10;;;22.60;63.40;;;;;;5073734;28;20445;-80
2024/02/16 08:48:47;;;;;;;1.80;1.10;;;22.60;63.40;;;;;;5087075;28;20523;-81
2024/02/16 08:51:14;;;;;;;2.03;1.00;;;22.50;63.30;;;;;;5075385;28;20896;-81
2024/02/16 08:53:40;;;;;;;3.27;1.30;;;22.50;63.40;;;;;;5085255;28;20766;-79
2024/02/16 08:56:12;;;;;;;2.20;1.33;;;22.50;63.40;;;;;;5082842;28;20462;-81
2024/02/16 08:58:39;;;;;;;1.87;1.27;;;22.50;63.40;;;;;;5076978;28;20887;-86
2024/02/16 09:01:06;;;;;;;1.80;1.20;;;22.50;63.40;;;;;;5058403;28;20988;-78
2024/02/16 09:03:38;;;;;;;2.00;1.00;;;22.50;63.30;;;;;;5085792;28;20935;-87
2024/02/16 09:06:05;;;;;;;1.77;1.10;;;22.50;63.40;;;;;;5082843;28;20443;-79
2024/02/16 09:08:33;;;;;;;2.00;1.00;;;22.50;63.30;;;;;;5077675;28;20468;-82
2024/02/16 09:11:00;;;;;;;1.60;1.00;;;22.60;63.40;;;;;;5074185;28;20480;-83
2024/02/16 09:13:28;;;;;;;1.87;1.00;;;22.50;63.20;;;;;;5093200;28;20442;-79
2024/02/16 09:15:54;;;;;;;2.10;1.30;;;22.60;63.40;;;;;;5082837;28;20443;-79
2024/02/16 09:18:21;;;;;;;1.60;1.00;;;22.60;63.30;;;;;;5072858;28;20451;-78
2024/02/16 09:20:48;;;;;;;1.83;1.07;;;22.60;63.40;;;;;;5072252;28;20444;-82
2024/02/16 09:23:15;;;;;;;1.80;1.10;;;22.60;63.30;;;;;;5072671;28;20539;-79
2024/02/16 09:25:43;;;;;;;1.97;1.13;;;22.70;63.40;;;;;;5072597;28;20993;-80
2024/02/16 09:28:10;;;;;;;2.70;1.07;;;22.60;63.20;;;;;;5083185;28;20562;-80
2024/02/16 09:30:39;;;;;;;1.80;1.03;;;22.60;63.20;;;;;;5092746;28;20439;-82
2024/02/16 09:33:07;;;;;;;2.30;1.00;;;22.60;63.20;;;;;;5091903;28;20478;-78
2024/02/16 09:35:33;;;;;;;3.10;0.93;;;22.60;63.20;;;;;;5085630;28;20451;-79
2024/02/16 09:38:00;;;;;;;1.60;1.03;;;22.60;63.20;;;;;;5079438;28;20456;-79
2024/02/16 09:40:27;;;;;;;1.70;1.10;;;22.60;63.20;;;;;;5086007;28;20490;-85
2024/02/16 09:42:54;;;;;;;2.93;1.13;;;22.60;63.20;;;;;;5074335;28;20795;-80
2024/02/16 09:45:21;;;;;;;2.10;1.00;;;22.60;63.20;;;;;;5072244;28;20883;-83
2024/02/16 09:47:52;;;;;;;3.30;1.20;;;22.60;63.20;;;;;;5073413;28;20842;-86
2024/02/16 09:50:19;;;;;;;1.97;1.03;;;22.60;63.30;;;;;;5064582;28;20940;-87
2024/02/16 09:55:52;;;;;;;1.60;1.00;;;22.60;63.20;;;;;;5073335;28;20974;-79
2024/02/16 09:58:19;;;;;;;2.90;1.20;;;22.60;63.30;;;;;;5070872;28;20444;-84
2024/02/16 10:00:50;;;;;;;1.77;1.10;;;22.60;63.30;;;;;;5066472;28;20443;-82
2024/02/16 10:03:29;;;;;;;2.30;1.20;;;22.60;63.30;;;;;;5072375;28;20451;-85
2024/02/16 10:06:06;;;;;;;2.00;1.30;;;22.60;63.30;;;;;;5073350;28;20440;-83
2024/02/16 10:08:33;;;;;;;2.00;1.00;;;22.70;63.40;;;;;;5072879;28;20484;-84
2024/02/16 10:11:03;;;;;;;1.97;1.07;;;22.60;63.20;;;;;;5082462;28;20440;-83
2024/02/16 10:13:31;;;;;;;1.63;1.20;;;22.70;63.30;;;;;;5074777;28;20441;-82
2024/02/16 10:16:09;;;;;;;1.50;0.90;;;22.60;63.20;;;;;;5074897;28;20505;-91
2024/02/16 10:18:37;;;;;;;1.50;0.90;;;22.60;63.30;;;;;;5072907;28;20935;-83
2024/02/16 10:21:04;;;;;;;1.83;0.97;;;22.60;63.30;;;;;;5073032;28;20463;-84
2024/02/16 10:23:31;;;;;;;4.50;1.00;;;22.60;63.40;;;;;;5072743;28;20443;-85
2024/02/16 10:25:59;;;;;;;1.80;1.10;;;22.70;63.50;;;;;;5072852;28;20460;-83
2024/02/16 10:28:30;;;;;;;1.73;1.03;;;22.70;63.50;;;;;;5072859;28;20448;-83
2024/02/16 10:31:01;;;;;;;1.63;1.20;;;22.70;63.40;;;;;;5072932;28;20483;-83
2024/02/16 10:33:29;;;;;;;2.03;1.10;;;22.70;63.40;;;;;;5072747;28;20510;-83
2024/02/16 10:35:58;;;;;;;3.43;1.40;;;22.70;63.40;;;;;;5072605;28;20436;-83
2024/02/16 10:38:26;;;;;;;1.67;1.10;;;22.70;63.40;;;;;;5072138;28;20428;-83
2024/02/16 10:40:54;;;;;;;2.37;1.03;;;22.70;63.40;;;;;;5072629;28;20436;-83
2024/02/16 10:43:22;;;;;;;2.20;1.27;;;22.70;63.40;;;;;;5072618;28;20436;-81
2024/02/16 10:45:52;;;;;;;3.30;1.00;;;22.70;63.30;;;;;;5072045;28;20436;-86
2024/02/16 10:48:19;;;;;;;2.83;1.20;;;22.60;63.30;;;;;;5072480;28;20424;-79
2024/02/16 10:50:47;;;;;;;1.70;1.20;;;22.60;63.00;;;;;;5072011;28;20444;-84
2024/02/16 10:53:21;;;;;;;1.97;1.10;;;22.60;63.80;;;;;;5072520;28;20499;-80
2024/02/16 10:55:48;;;;;;;3.30;1.40;;;22.60;62.90;;;;;;5072461;28;20482;-83
2024/02/16 10:58:15;;;;;;;3.60;1.10;;;22.60;63.20;;;;;;5072726;28;20881;-90
2024/02/16 11:00:55;;;;;;;2.97;1.27;;;22.60;63.30;;;;;;5054884;28;20855;-82
2024/02/16 11:03:26;;;;;;;2.67;1.20;;;22.70;63.40;;;;;;5064994;28;20493;-87
2024/02/16 11:05:54;;;;;;;4.70;1.87;;;22.70;63.40;;;;;;5072508;28;20438;-83
2024/02/16 11:08:26;;;;;;;3.10;1.57;;;22.70;63.30;;;;;;5072476;28;20471;-82
2024/02/16 11:10:57;;;;;;;2.40;1.00;;;22.70;63.40;;;;;;5072790;28;20471;-89
2024/02/16 11:13:25;;;;;;;2.67;1.17;;;22.70;63.50;;;;;;5072402;28;20500;-86
2024/02/16 11:15:59;;;;;;;1.93;1.27;;;22.70;63.30;;;;;;5072644;28;20448;-84
2024/02/16 11:18:26;;;;;;;2.20;1.17;;;22.70;63.50;;;;;;5072811;28;20561;-82
2024/02/16 11:20:54;;;;;;;4.20;1.30;;;22.70;63.60;;;;;;5076674;28;20436;-90
2024/02/16 11:23:28;;;;;;;3.60;1.10;;;22.70;63.50;;;;;;5058806;28;21001;-83
2024/02/16 11:26:00;;;;;;;2.90;1.43;;;22.70;63.60;;;;;;5079525;28;20482;-81
2024/02/16 11:28:28;;;;;;;2.57;1.40;;;22.70;63.50;;;;;;5083373;28;20460;-82
2024/02/16 11:30:55;;;;;;;4.33;1.57;;;22.80;63.60;;;;;;5081360;28;20428;-81
2024/02/16 11:33:21;;;;;;;2.27;1.20;;;22.80;63.60;;;;;;5082253;28;20491;-78
2024/02/16 11:35:54;;;;;;;2.97;1.50;;;22.80;63.50;;;;;;5075641;28;20444;-79
2024/02/16 11:38:22;;;;;;;4.30;1.60;;;22.80;63.60;;;;;;5068102;28;20462;-82
2024/02/16 11:40:57;;;;;;;2.70;1.30;;;22.70;63.10;;;;;;5075296;28;20503;-90
2024/02/16 11:43:25;;;;;;;2.70;1.37;;;22.80;63.50;;;;;;5077436;28;20447;-85
2024/02/16 11:45:52;;;;;;;3.17;1.33;;;22.80;64.30;;;;;;5075608;28;20443;-80
2024/02/16 11:48:23;;;;;;;1.70;1.07;;;22.80;63.40;;;;;;5075285;28;20445;-80
2024/02/16 11:51:00;;;;;;;2.40;1.40;;;22.80;63.40;;;;;;5074836;28;20444;-79
2024/02/16 11:53:28;;;;;;;2.43;1.30;;;22.80;63.40;;;;;;5074944;28;20578;-80
2024/02/16 11:55:55;;;;;;;2.73;1.27;;;22.80;63.30;;;;;;5074930;28;20457;-81
2024/02/16 11:58:23;;;;;;;3.87;1.60;;;22.80;63.50;;;;;;5074981;28;20436;-85
2024/02/16 12:00:51;;;;;;;5.10;1.43;;;22.70;63.50;;;;;;5075010;28;20498;-78
2024/02/16 12:03:22;;;;;;;3.13;1.43;;;22.70;63.60;;;;;;5074664;28;20444;-79
2024/02/16 12:05:53;;;;;;;3.20;1.40;;;22.70;63.60;;;;;;5074645;28;20932;-79
2024/02/16 12:08:20;;;;;;;2.17;1.30;;;22.70;63.90;;;;;;5074380;28;20552;-90
2024/02/16 12:10:49;;;;;;;3.83;1.20;;;22.70;64.10;;;;;;5074577;28;20494;-80
2024/02/16 12:13:17;;;;;;;1.80;1.10;;;22.70;64.40;;;;;;5074617;28;20483;-81
2024/02/16 12:15:45;;;;;;;5.83;1.17;;;22.70;64.70;;;;;;5074821;28;20842;-81
2024/02/16 12:18:19;;;;;;;2.00;1.40;;;22.70;65.80;;;;;;5074717;28;20494;-83
2024/02/16 12:20:48;;;;;;;2.57;1.30;;;22.70;65.10;;;;;;5075098;28;20428;-81
2024/02/16 12:23:15;;;;;;;4.57;1.50;;;22.70;65.50;;;;;;5074681;28;20506;-81
2024/02/16 12:25:42;;;;;;;2.40;1.57;;;22.60;65.40;;;;;;5074530;28;20462;-83
2024/02/16 12:28:10;;;;;;;2.60;1.70;;;22.80;65.90;;;;;;5074565;28;20443;-86
2024/02/16 12:30:37;;;;;;;4.40;1.33;;;22.70;65.90;;;;;;5073535;28;20449;-84
2024/02/16 12:33:04;;;;;;;4.43;1.40;;;22.70;65.80;;;;;;5074026;28;20976;-81
2024/02/16 12:35:31;;;;;;;3.57;1.40;;;22.70;65.90;;;;;;5074255;28;20436;-81
2024/02/16 12:37:58;;;;;;;4.00;1.10;;;22.70;65.80;;;;;;5074111;28;20440;-80
2024/02/16 12:40:25;;;;;;;2.33;1.50;;;22.70;66.00;;;;;;5074119;28;20455;-81
2024/02/16 12:42:53;;;;;;;3.83;1.40;;;22.70;65.80;;;;;;5073165;28;20452;-87
2024/02/16 12:45:21;;;;;;;2.83;1.70;;;22.70;66.00;;;;;;5065884;28;20831;-80
2024/02/16 12:47:50;;;;;;;4.87;1.23;;;22.70;66.00;;;;;;5072593;28;20444;-82
2024/02/16 12:50:17;;;;;;;5.37;1.60;;;22.70;66.10;;;;;;5073488;28;20459;-85
2024/02/16 12:52:46;;;;;;;2.43;1.50;;;22.70;65.70;;;;;;5067600;28;20906;-81
2024/02/16 12:55:14;;;;;;;3.90;1.53;;;22.70;65.30;;;;;;5072670;28;20882;-80